createdAt,value
2019-06-20T00:00:29.595Z,17.44
2019-06-20T00:01:29.571Z,17.43
2019-06-20T00:02:29.556Z,17.36
2019-06-20T00:03:29.544Z,17.35
2019-06-20T00:04:29.530Z,17.40
2019-06-20T00:05:29.538Z,17.41
2019-06-20T00:06:29.508Z,17.48
2019-06-20T00:07:29.498Z,17.50
2019-06-20T00:08:29.485Z,17.48
2019-06-20T00:09:29.472Z,17.50
2019-06-20T00:10:29.484Z,17.54
2019-06-20T00:11:29.446Z,17.57
2019-06-20T00:12:29.436Z,17.63
2019-06-20T00:13:29.438Z,17.74
2019-06-20T00:14:29.411Z,17.71
2019-06-20T00:15:29.417Z,17.89
2019-06-20T00:16:29.413Z,17.97
2019-06-20T00:17:29.377Z,17.88
2019-06-20T00:18:29.363Z,17.97
2019-06-20T00:19:29.358Z,18.02
2019-06-20T00:20:29.438Z,17.91
2019-06-20T00:21:29.351Z,17.84
2019-06-20T00:22:29.385Z,17.97
2019-06-20T00:23:29.304Z,17.99
2019-06-20T00:24:29.302Z,17.99
2019-06-20T00:25:29.280Z,17.99
2019-06-20T00:26:29.285Z,17.91
2019-06-20T00:27:29.256Z,17.84
2019-06-20T00:28:29.247Z,17.91
2019-06-20T00:29:29.237Z,17.79
2019-06-20T00:30:29.225Z,17.84
2019-06-20T00:31:29.226Z,17.84
2019-06-20T00:32:29.202Z,17.70
2019-06-20T00:33:29.185Z,17.74
2019-06-20T00:34:29.175Z,17.70
2019-06-20T00:35:29.161Z,17.62
2019-06-20T00:36:29.177Z,17.64
2019-06-20T00:37:29.138Z,17.69
2019-06-20T00:38:29.129Z,17.71
2019-06-20T00:39:29.123Z,17.73
2019-06-20T00:40:29.110Z,17.67
2019-06-20T00:41:29.111Z,17.63
2019-06-20T00:42:29.084Z,17.79
2019-06-20T00:43:29.073Z,17.84
2019-06-20T00:44:29.089Z,17.89
2019-06-20T00:45:29.053Z,17.91
2019-06-20T00:46:29.074Z,17.88
2019-06-20T00:47:29.021Z,17.91
2019-06-20T00:48:29.010Z,17.95
2019-06-20T00:49:28.996Z,17.89
2019-06-20T00:50:28.986Z,17.91
2019-06-20T00:51:28.975Z,17.94
2019-06-20T00:52:28.985Z,17.94
2019-06-20T00:53:28.954Z,17.84
2019-06-20T00:54:28.941Z,18.00
2019-06-20T00:55:28.934Z,17.95
2019-06-20T00:56:28.916Z,17.97
2019-06-20T00:57:28.930Z,18.02
2019-06-20T00:58:28.897Z,18.06
2019-06-20T00:59:28.895Z,18.00
2019-06-20T01:00:28.869Z,17.89
2019-06-20T01:01:28.858Z,18.03
2019-06-20T01:02:28.868Z,17.97
2019-06-20T01:03:28.841Z,17.87
2019-06-20T01:04:28.832Z,17.97
2019-06-20T01:05:28.810Z,18.10
2019-06-20T01:06:28.879Z,18.04
2019-06-20T01:07:28.811Z,18.10
2019-06-20T01:08:28.778Z,17.95
2019-06-20T01:09:28.767Z,18.13
2019-06-20T01:10:28.756Z,18.18
2019-06-20T01:11:28.773Z,18.15
2019-06-20T01:12:28.736Z,18.10
2019-06-20T01:13:33.571Z,18.02
2019-06-20T01:14:29.707Z,18.18
2019-06-20T01:15:28.707Z,18.17
2019-06-20T01:16:28.716Z,18.10
2019-06-20T01:17:28.680Z,18.10
2019-06-20T01:18:28.682Z,18.13
2019-06-20T01:19:28.653Z,18.04
2019-06-20T01:20:28.641Z,18.02
2019-06-20T01:21:28.650Z,18.02
2019-06-20T01:22:28.614Z,18.12
2019-06-20T01:23:28.603Z,18.00
2019-06-20T01:24:28.634Z,18.07
2019-06-20T01:25:28.579Z,17.91
2019-06-20T01:26:28.589Z,17.95
2019-06-20T01:27:28.555Z,18.00
2019-06-20T01:28:28.545Z,17.85
2019-06-20T01:29:28.532Z,17.95
2019-06-20T01:30:28.533Z,17.92
2019-06-20T01:31:28.527Z,17.91
2019-06-20T01:32:28.530Z,17.92
2019-06-20T01:33:28.490Z,17.87
2019-06-20T01:34:28.474Z,17.91
2019-06-20T01:35:28.461Z,18.00
2019-06-20T01:36:28.472Z,17.97
2019-06-20T01:37:28.449Z,18.04
2019-06-20T01:38:28.441Z,18.07
2019-06-20T01:39:28.415Z,17.97
2019-06-20T01:40:28.413Z,18.15
2019-06-20T01:41:28.414Z,18.15
2019-06-20T01:42:28.379Z,18.17
2019-06-20T01:43:28.371Z,18.13
2019-06-20T01:44:28.362Z,18.19
2019-06-20T01:45:28.351Z,18.18
2019-06-20T01:46:28.370Z,18.24
2019-06-20T01:47:28.325Z,18.22
2019-06-20T01:48:28.314Z,18.15
2019-06-20T01:49:28.298Z,18.25
2019-06-20T01:50:28.288Z,18.17
2019-06-20T01:51:28.276Z,18.24
2019-06-20T01:52:28.288Z,18.24
2019-06-20T01:53:28.253Z,18.21
2019-06-20T01:54:28.240Z,18.13
2019-06-20T01:55:28.267Z,18.25
2019-06-20T01:56:28.222Z,18.22
2019-06-20T01:57:28.225Z,18.27
2019-06-20T01:58:28.194Z,18.25
2019-06-20T01:59:28.183Z,18.27
2019-06-20T02:00:28.169Z,18.28
2019-06-20T02:01:28.158Z,18.33
2019-06-20T02:02:28.166Z,18.33
2019-06-20T02:03:28.143Z,18.42
2019-06-20T02:04:28.127Z,18.42
2019-06-20T02:05:28.114Z,18.33
2019-06-20T02:06:28.107Z,18.44
2019-06-20T02:07:28.442Z,18.44
2019-06-20T02:08:28.084Z,18.46
2019-06-20T02:09:28.075Z,18.40
2019-06-20T02:10:28.055Z,18.42
2019-06-20T02:11:28.042Z,18.43
2019-06-20T02:12:28.051Z,18.29
2019-06-20T02:13:28.018Z,18.39
2019-06-20T02:14:28.016Z,18.42
2019-06-20T02:15:27.995Z,18.40
2019-06-20T02:16:27.984Z,18.49
2019-06-20T02:17:27.997Z,18.42
2019-06-20T02:18:27.966Z,18.42
2019-06-20T02:19:27.950Z,18.42
2019-06-20T02:20:27.937Z,18.42
2019-06-20T02:21:27.928Z,18.47
2019-06-20T02:22:27.915Z,18.50
2019-06-20T02:23:27.923Z,18.50
2019-06-20T02:24:27.926Z,18.43
2019-06-20T02:25:28.033Z,18.39
2019-06-20T02:26:27.867Z,18.49
2019-06-20T02:27:27.857Z,18.36
2019-06-20T02:28:27.862Z,18.52
2019-06-20T02:29:27.833Z,18.40
2019-06-20T02:30:27.833Z,18.43
2019-06-20T02:31:27.811Z,18.44
2019-06-20T02:32:27.797Z,18.31
2019-06-20T02:33:27.806Z,18.42
2019-06-20T02:34:27.780Z,18.46
2019-06-20T02:35:27.763Z,18.33
2019-06-20T02:36:27.757Z,18.28
2019-06-20T02:37:27.742Z,18.31
2019-06-20T02:38:27.749Z,18.34
2019-06-20T02:39:27.718Z,18.29
2019-06-20T02:40:27.710Z,18.29
2019-06-20T02:41:27.695Z,18.18
2019-06-20T02:42:27.685Z,18.28
2019-06-20T02:43:27.715Z,18.21
2019-06-20T02:44:30.542Z,18.22
2019-06-20T02:45:27.658Z,18.27
2019-06-20T02:46:27.638Z,18.24
2019-06-20T02:47:27.635Z,18.22
2019-06-20T02:48:27.621Z,18.27
2019-06-20T02:49:27.620Z,18.28
2019-06-20T02:50:27.594Z,18.28
2019-06-20T02:51:27.577Z,18.29
2019-06-20T02:52:27.569Z,18.07
2019-06-20T02:53:27.561Z,18.17
2019-06-20T02:54:27.563Z,18.12
2019-06-20T02:55:27.533Z,18.18
2019-06-20T02:56:27.527Z,18.19
2019-06-20T02:57:27.558Z,18.13
2019-06-20T02:58:27.523Z,18.17
2019-06-20T02:59:27.503Z,18.22
2019-06-20T03:00:27.471Z,18.17
2019-06-20T03:01:27.471Z,18.10
2019-06-20T03:02:27.452Z,18.17
2019-06-20T03:03:27.455Z,18.17
2019-06-20T03:04:27.473Z,18.25
2019-06-20T03:05:27.419Z,18.06
2019-06-20T03:06:27.422Z,18.31
2019-06-20T03:07:27.391Z,18.21
2019-06-20T03:08:27.381Z,18.18
2019-06-20T03:09:27.412Z,18.17
2019-06-20T03:10:27.356Z,18.15
2019-06-20T03:11:27.346Z,18.22
2019-06-20T03:12:27.341Z,18.22
2019-06-20T03:13:27.324Z,18.18
2019-06-20T03:14:27.315Z,18.19
2019-06-20T03:15:27.326Z,18.18
2019-06-20T03:16:27.289Z,18.18
2019-06-20T03:17:27.276Z,18.22
2019-06-20T03:18:27.266Z,18.25
2019-06-20T03:19:27.254Z,18.29
2019-06-20T03:20:27.262Z,18.22
2019-06-20T03:21:27.229Z,18.28
2019-06-20T03:22:27.223Z,18.24
2019-06-20T03:23:27.209Z,18.28
2019-06-20T03:24:27.197Z,18.22
2019-06-20T03:25:27.205Z,18.34
2019-06-20T03:26:27.173Z,18.27
2019-06-20T03:27:27.166Z,18.29
2019-06-20T03:28:27.150Z,18.24
2019-06-20T03:29:27.136Z,18.25
2019-06-20T03:30:27.145Z,18.21
2019-06-20T03:31:27.116Z,18.19
2019-06-20T03:32:27.103Z,18.19
2019-06-20T03:33:27.101Z,18.22
2019-06-20T03:34:27.083Z,18.27
2019-06-20T03:35:27.089Z,18.24
2019-06-20T03:36:27.058Z,18.22
2019-06-20T03:37:27.045Z,18.22
2019-06-20T03:38:27.031Z,18.21
2019-06-20T03:39:27.021Z,18.18
2019-06-20T03:40:27.030Z,18.17
2019-06-20T03:41:27.003Z,18.19
2019-06-20T03:42:26.993Z,18.13
2019-06-20T03:43:26.977Z,18.18
2019-06-20T03:44:26.962Z,18.22
2019-06-20T03:45:26.970Z,18.10
2019-06-20T03:46:26.941Z,18.15
2019-06-20T03:47:26.999Z,18.15
2019-06-20T03:48:26.917Z,18.24
2019-06-20T03:49:26.924Z,18.22
2019-06-20T03:50:26.911Z,18.19
2019-06-20T03:51:26.883Z,18.13
2019-06-20T03:52:26.870Z,18.19
2019-06-20T03:53:26.857Z,18.18
2019-06-20T03:54:26.846Z,18.19
2019-06-20T03:55:26.860Z,18.22
2019-06-20T03:56:26.832Z,18.18
2019-06-20T03:57:26.812Z,18.19
2019-06-20T03:58:26.798Z,18.21
2019-06-20T03:59:26.786Z,18.22
2019-06-20T04:00:26.796Z,18.19
2019-06-20T04:01:26.765Z,18.24
2019-06-20T04:02:26.753Z,18.18
2019-06-20T04:03:26.742Z,18.19
2019-06-20T04:04:26.733Z,18.24
2019-06-20T04:05:26.740Z,18.17
2019-06-20T04:06:26.714Z,18.15
2019-06-20T04:07:26.695Z,18.10
2019-06-20T04:08:26.686Z,18.10
2019-06-20T04:09:26.673Z,18.15
2019-06-20T04:10:26.683Z,18.09
2019-06-20T04:11:26.651Z,18.13
2019-06-20T04:12:26.638Z,18.12
2019-06-20T04:13:26.633Z,18.17
2019-06-20T04:14:26.616Z,18.09
2019-06-20T04:15:26.623Z,18.22
2019-06-20T04:16:26.590Z,18.12
2019-06-20T04:17:26.580Z,18.10
2019-06-20T04:18:26.581Z,18.17
2019-06-20T04:19:26.561Z,18.17
2019-06-20T04:20:26.546Z,18.12
2019-06-20T04:21:26.554Z,18.22
2019-06-20T04:22:26.520Z,18.21
2019-06-20T04:23:26.510Z,18.27
2019-06-20T04:24:27.966Z,18.28
2019-06-20T04:25:26.486Z,18.27
2019-06-20T04:26:26.499Z,18.28
2019-06-20T04:27:26.469Z,18.24
2019-06-20T04:28:26.463Z,18.28
2019-06-20T04:29:26.441Z,18.27
2019-06-20T04:30:26.430Z,18.39
2019-06-20T04:31:26.441Z,18.27
2019-06-20T04:32:26.409Z,18.27
2019-06-20T04:33:26.401Z,18.28
2019-06-20T04:34:26.381Z,18.28
2019-06-20T04:35:26.376Z,18.33
2019-06-20T04:36:26.384Z,18.36
2019-06-20T04:37:26.352Z,18.33
2019-06-20T04:38:26.336Z,18.28
2019-06-20T04:39:26.328Z,18.37
2019-06-20T04:40:26.317Z,18.40
2019-06-20T04:41:26.323Z,18.42
2019-06-20T04:42:26.294Z,18.40
2019-06-20T04:43:26.284Z,18.42
2019-06-20T04:44:26.270Z,18.40
2019-06-20T04:45:34.968Z,18.36
2019-06-20T04:46:27.265Z,18.39
2019-06-20T04:47:26.232Z,18.40
2019-06-20T04:48:26.223Z,18.43
2019-06-20T04:49:26.211Z,18.37
2019-06-20T04:50:26.207Z,18.40
2019-06-20T04:51:26.207Z,18.42
2019-06-20T04:52:26.176Z,18.36
2019-06-20T04:53:26.164Z,18.28
2019-06-20T04:54:26.157Z,18.34
2019-06-20T04:55:26.157Z,18.29
2019-06-20T04:56:26.148Z,18.42
2019-06-20T04:57:26.120Z,18.55
2019-06-20T04:58:26.109Z,18.58
2019-06-20T04:59:26.092Z,18.59
2019-06-20T05:00:26.084Z,18.57
2019-06-20T05:01:26.090Z,18.73
2019-06-20T05:02:26.060Z,18.72
2019-06-20T05:03:26.048Z,18.83
2019-06-20T05:04:26.037Z,18.73
2019-06-20T05:05:26.025Z,18.76
2019-06-20T05:06:26.032Z,18.74
2019-06-20T05:07:26.002Z,18.72
2019-06-20T05:08:25.992Z,18.77
2019-06-20T05:09:25.982Z,18.76
2019-06-20T05:10:25.972Z,18.87
2019-06-20T05:11:25.977Z,18.82
2019-06-20T05:12:25.945Z,18.99
2019-06-20T05:13:25.933Z,18.97
2019-06-20T05:14:25.920Z,19.10
2019-06-20T05:15:25.908Z,19.15
2019-06-20T05:16:25.920Z,19.05
2019-06-20T05:17:25.888Z,19.13
2019-06-20T05:18:25.880Z,18.94
2019-06-20T05:19:25.863Z,18.97
2019-06-20T05:20:25.853Z,18.83
2019-06-20T05:21:25.862Z,18.82
2019-06-20T05:22:25.841Z,18.87
2019-06-20T05:23:25.862Z,18.76
2019-06-20T05:24:25.804Z,18.94
2019-06-20T05:25:25.806Z,19.10
2019-06-20T05:26:25.801Z,18.97
2019-06-20T05:27:25.770Z,18.98
2019-06-20T05:28:25.762Z,19.01
2019-06-20T05:29:25.750Z,18.90
2019-06-20T05:30:25.735Z,18.94
2019-06-20T05:31:25.746Z,18.79
2019-06-20T05:32:25.717Z,18.87
2019-06-20T05:33:25.703Z,18.86
2019-06-20T05:34:25.690Z,18.92
2019-06-20T05:35:25.680Z,18.74
2019-06-20T05:36:25.691Z,18.86
2019-06-20T05:37:25.666Z,18.80
2019-06-20T05:38:25.643Z,18.80
2019-06-20T05:39:25.632Z,18.79
2019-06-20T05:40:25.627Z,18.70
2019-06-20T05:41:25.632Z,18.70
2019-06-20T05:42:25.602Z,18.76
2019-06-20T05:43:25.586Z,18.68
2019-06-20T05:44:25.576Z,18.72
2019-06-20T05:45:25.568Z,18.73
2019-06-20T05:46:25.551Z,18.62
2019-06-20T05:47:25.561Z,18.59
2019-06-20T05:48:25.529Z,18.58
2019-06-20T05:49:25.521Z,18.47
2019-06-20T05:50:25.506Z,18.54
2019-06-20T05:51:25.495Z,18.52
2019-06-20T05:52:25.518Z,18.46
2019-06-20T05:53:25.474Z,18.58
2019-06-20T05:54:25.454Z,18.58
2019-06-20T05:55:25.445Z,18.52
2019-06-20T05:56:26.047Z,18.50
2019-06-20T05:57:25.423Z,18.43
2019-06-20T05:58:25.428Z,18.42
2019-06-20T05:59:25.770Z,18.42
2019-06-20T06:00:25.383Z,18.44
2019-06-20T06:01:26.362Z,18.44
2019-06-20T06:02:25.371Z,18.37
2019-06-20T06:03:25.370Z,18.39
2019-06-20T06:04:25.343Z,18.42
2019-06-20T06:05:25.324Z,18.31
2019-06-20T06:06:25.322Z,18.24
2019-06-20T06:07:25.302Z,18.27
2019-06-20T06:08:25.317Z,18.29
2019-06-20T06:09:25.280Z,18.42
2019-06-20T06:10:25.269Z,18.40
2019-06-20T06:11:25.265Z,18.33
2019-06-20T06:12:25.248Z,18.54
2019-06-20T06:13:25.251Z,18.52
2019-06-20T06:14:25.254Z,18.59
2019-06-20T06:15:25.208Z,18.62
2019-06-20T06:16:27.496Z,18.68
2019-06-20T06:17:25.184Z,18.80
2019-06-20T06:18:25.192Z,18.91
2019-06-20T06:19:25.161Z,18.95
2019-06-20T06:20:25.152Z,19.05
2019-06-20T06:21:32.299Z,19.10
2019-06-20T06:22:25.153Z,19.11
2019-06-20T06:23:25.134Z,19.01
2019-06-20T06:24:25.135Z,19.14
2019-06-20T06:25:25.087Z,19.18
2019-06-20T06:26:25.089Z,19.28
2019-06-20T06:27:25.068Z,19.33
2019-06-20T06:28:25.072Z,19.31
2019-06-20T06:29:25.049Z,19.33
2019-06-20T06:30:25.027Z,19.31
2019-06-20T06:31:25.018Z,19.24
2019-06-20T06:32:39.237Z,19.39
2019-06-20T06:33:26.014Z,19.42
2019-06-20T06:34:24.982Z,19.43
2019-06-20T06:35:25.102Z,19.35
2019-06-20T06:36:24.956Z,19.38
2019-06-20T06:37:24.949Z,19.48
2019-06-20T06:38:24.936Z,19.31
2019-06-20T06:39:24.941Z,19.47
2019-06-20T06:40:24.911Z,19.48
2019-06-20T06:41:24.902Z,19.54
2019-06-20T06:42:24.895Z,19.46
2019-06-20T06:43:25.043Z,19.55
2019-06-20T06:44:24.938Z,19.63
2019-06-20T06:45:24.874Z,19.58
2019-06-20T06:46:24.850Z,19.50
2019-06-20T06:47:24.834Z,19.57
2019-06-20T06:48:24.834Z,19.63
2019-06-20T06:49:24.844Z,19.76
2019-06-20T06:50:24.795Z,19.95
2019-06-20T06:51:24.834Z,19.91
2019-06-20T06:52:24.772Z,20.00
2019-06-20T06:53:24.906Z,19.98
2019-06-20T06:54:24.763Z,19.95
2019-06-20T06:55:27.516Z,19.93
2019-06-20T06:56:24.736Z,19.97
2019-06-20T06:57:24.714Z,19.97
2019-06-20T06:58:24.703Z,20.08
2019-06-20T06:59:24.711Z,20.00
2019-06-20T07:00:24.678Z,19.93
2019-06-20T07:01:24.675Z,20.13
2019-06-20T07:02:24.654Z,20.18
2019-06-20T07:03:24.643Z,20.24
2019-06-20T07:04:24.633Z,20.41
2019-06-20T07:05:24.637Z,20.46
2019-06-20T07:06:24.716Z,20.42
2019-06-20T07:07:24.598Z,20.59
2019-06-20T07:08:24.589Z,20.62
2019-06-20T07:09:24.576Z,20.66
2019-06-20T07:10:24.617Z,20.69
2019-06-20T07:11:24.551Z,20.68
2019-06-20T07:12:24.548Z,20.76
2019-06-20T07:13:24.528Z,20.65
2019-06-20T07:14:24.525Z,20.68
2019-06-20T07:15:24.525Z,20.58
2019-06-20T07:16:24.495Z,20.58
2019-06-20T07:17:24.485Z,20.65
2019-06-20T07:18:24.475Z,20.62
2019-06-20T07:19:24.461Z,20.72
2019-06-20T07:20:24.465Z,20.87
2019-06-20T07:21:24.439Z,20.91
2019-06-20T07:22:24.424Z,21.13
2019-06-20T07:23:24.413Z,21.17
2019-06-20T07:24:24.405Z,21.30
2019-06-20T07:25:24.433Z,21.27
2019-06-20T07:26:24.379Z,21.26
2019-06-20T07:27:24.369Z,21.26
2019-06-20T07:28:24.356Z,21.35
2019-06-20T07:29:24.344Z,21.21
2019-06-20T07:30:24.332Z,21.21
2019-06-20T07:31:24.338Z,21.24
2019-06-20T07:32:24.383Z,21.39
2019-06-20T07:33:24.295Z,21.30
2019-06-20T07:34:24.289Z,21.29
2019-06-20T07:35:24.272Z,21.16
2019-06-20T07:36:24.279Z,21.06
2019-06-20T07:37:24.247Z,21.11
2019-06-20T07:38:24.246Z,21.01
2019-06-20T07:39:24.227Z,21.04
2019-06-20T07:40:24.213Z,21.02
2019-06-20T07:41:24.218Z,20.90
2019-06-20T07:42:24.195Z,21.04
2019-06-20T07:43:24.179Z,20.81
2019-06-20T07:44:24.208Z,20.81
2019-06-20T07:45:27.134Z,20.77
2019-06-20T07:46:24.162Z,20.87
2019-06-20T07:47:24.131Z,20.86
2019-06-20T07:48:24.128Z,20.66
2019-06-20T07:49:24.107Z,20.66
2019-06-20T07:50:24.097Z,20.62
2019-06-20T07:51:24.160Z,20.58
2019-06-20T07:52:24.074Z,20.58
2019-06-20T07:53:24.067Z,20.50
2019-06-20T07:54:24.057Z,20.47
2019-06-20T07:55:24.040Z,20.46
2019-06-20T07:56:24.045Z,20.51
2019-06-20T07:57:24.022Z,20.62
2019-06-20T07:58:24.003Z,20.87
2019-06-20T07:59:23.995Z,20.96
2019-06-20T08:00:24.005Z,21.02
2019-06-20T08:01:23.991Z,21.01
2019-06-20T08:02:23.957Z,21.59
2019-06-20T08:03:23.948Z,22.41
2019-06-20T08:04:23.933Z,23.31
2019-06-20T08:05:23.923Z,24.35
2019-06-20T08:06:23.930Z,25.47
2019-06-20T08:07:23.901Z,25.94
2019-06-20T08:08:23.888Z,26.11
2019-06-20T08:09:23.878Z,26.69
2019-06-20T08:10:23.893Z,27.19
2019-06-20T08:11:23.873Z,27.67
2019-06-20T08:12:23.847Z,28.07
2019-06-20T08:13:23.831Z,28.28
2019-06-20T08:14:23.821Z,28.16
2019-06-20T08:15:23.809Z,28.16
2019-06-20T08:16:23.816Z,28.59
2019-06-20T08:17:34.697Z,29.28
2019-06-20T08:18:24.797Z,29.20
2019-06-20T08:19:23.765Z,29.00
2019-06-20T08:20:23.754Z,28.60
2019-06-20T08:21:23.762Z,28.68
2019-06-20T08:22:23.734Z,27.73
2019-06-20T08:23:23.721Z,28.07
2019-06-20T08:24:23.711Z,28.50
2019-06-20T08:25:23.699Z,28.40
2019-06-20T08:26:23.684Z,28.69
2019-06-20T08:27:23.694Z,28.33
2019-06-20T08:28:23.663Z,28.82
2019-06-20T08:29:23.661Z,28.48
2019-06-20T08:30:23.644Z,27.91
2019-06-20T08:31:23.631Z,27.05
2019-06-20T08:32:23.667Z,27.05
2019-06-20T08:33:23.611Z,27.85
2019-06-20T08:34:23.598Z,28.36
2019-06-20T08:35:23.594Z,28.32
2019-06-20T08:36:23.579Z,28.46
2019-06-20T08:37:23.606Z,29.22
2019-06-20T08:38:23.558Z,29.87
2019-06-20T08:39:23.545Z,30.49
2019-06-20T08:40:23.531Z,31.21
2019-06-20T08:41:23.520Z,31.62
2019-06-20T08:42:23.509Z,32.11
2019-06-20T08:43:23.523Z,32.64
2019-06-20T08:44:23.488Z,31.98
2019-06-20T08:45:23.480Z,31.06
2019-06-20T08:46:23.469Z,30.47
2019-06-20T08:47:23.457Z,29.90
2019-06-20T08:48:23.475Z,29.19
2019-06-20T08:49:23.441Z,28.65
2019-06-20T08:50:23.426Z,27.74
2019-06-20T08:51:23.414Z,28.40
2019-06-20T08:52:23.417Z,28.48
2019-06-20T08:53:23.422Z,27.98
2019-06-20T08:54:23.381Z,28.65
2019-06-20T08:55:23.370Z,28.47
2019-06-20T08:56:23.363Z,27.98
2019-06-20T08:57:23.498Z,27.74
2019-06-20T08:58:23.357Z,27.54
2019-06-20T08:59:24.786Z,27.48
2019-06-20T09:00:23.362Z,28.58
2019-06-20T09:01:23.348Z,28.16
2019-06-20T09:02:23.309Z,27.88
2019-06-20T09:03:23.299Z,27.13
2019-06-20T09:04:23.274Z,26.36
2019-06-20T09:05:23.263Z,26.06
2019-06-20T09:06:23.250Z,25.87
2019-06-20T09:07:23.238Z,25.38
2019-06-20T09:08:23.248Z,25.22
2019-06-20T09:09:23.214Z,25.16
2019-06-20T09:10:23.203Z,25.09
2019-06-20T09:11:23.195Z,25.02
2019-06-20T09:12:23.187Z,25.28
2019-06-20T09:13:23.195Z,26.54
2019-06-20T09:14:23.159Z,27.24
2019-06-20T09:15:23.146Z,27.79
2019-06-20T09:16:24.801Z,28.14
2019-06-20T09:17:23.134Z,28.93
2019-06-20T09:18:23.134Z,28.65
2019-06-20T09:19:23.106Z,29.79
2019-06-20T09:20:23.093Z,30.69
2019-06-20T09:21:23.093Z,31.33
2019-06-20T09:22:23.072Z,30.26
2019-06-20T09:23:23.080Z,29.19
2019-06-20T09:24:23.055Z,28.36
2019-06-20T09:25:23.041Z,28.17
2019-06-20T09:26:23.029Z,28.68
2019-06-20T09:27:23.017Z,29.87
2019-06-20T09:28:23.026Z,30.71
2019-06-20T09:29:22.996Z,30.16
2019-06-20T09:30:22.992Z,29.77
2019-06-20T09:31:22.987Z,28.81
2019-06-20T09:32:22.969Z,28.32
2019-06-20T09:33:22.972Z,27.74
2019-06-20T09:34:22.944Z,27.17
2019-06-20T09:35:22.930Z,26.92
2019-06-20T09:36:22.918Z,26.77
2019-06-20T09:37:22.909Z,26.44
2019-06-20T09:38:22.915Z,25.94
2019-06-20T09:39:22.885Z,25.38
2019-06-20T09:40:22.877Z,24.97
2019-06-20T09:41:22.866Z,24.64
2019-06-20T09:42:22.856Z,24.50
2019-06-20T09:43:27.574Z,24.38
2019-06-20T09:44:23.830Z,24.35
2019-06-20T09:45:22.820Z,24.45
2019-06-20T09:46:22.810Z,24.50
2019-06-20T09:47:22.802Z,24.80
2019-06-20T09:48:22.784Z,25.09
2019-06-20T09:49:22.792Z,26.43
2019-06-20T09:50:22.764Z,27.41
2019-06-20T09:51:22.759Z,27.06
2019-06-20T09:52:22.792Z,26.77
2019-06-20T09:53:22.728Z,26.47
2019-06-20T09:54:22.736Z,25.94
2019-06-20T09:55:22.704Z,25.68
2019-06-20T09:56:22.693Z,25.30
2019-06-20T09:57:22.683Z,24.87
2019-06-20T09:58:22.670Z,24.59
2019-06-20T09:59:27.519Z,24.47
2019-06-20T10:00:23.648Z,24.23
2019-06-20T10:01:22.636Z,24.47
2019-06-20T10:02:22.638Z,24.57
2019-06-20T10:03:22.617Z,25.15
2019-06-20T10:04:22.622Z,25.19
2019-06-20T10:05:22.594Z,25.12
2019-06-20T10:06:22.580Z,24.91
2019-06-20T10:07:22.568Z,24.59
2019-06-20T10:08:22.558Z,24.52
2019-06-20T10:09:22.573Z,24.47
2019-06-20T10:10:22.598Z,24.31
2019-06-20T10:11:22.523Z,24.50
2019-06-20T10:12:22.519Z,24.53
2019-06-20T10:13:22.507Z,24.56
2019-06-20T10:14:22.520Z,25.09
2019-06-20T10:15:22.478Z,26.54
2019-06-20T10:16:22.467Z,27.86
2019-06-20T10:17:22.454Z,28.90
2019-06-20T10:18:22.448Z,29.49
2019-06-20T10:19:22.454Z,29.33
2019-06-20T10:20:22.426Z,28.85
2019-06-20T10:21:22.409Z,28.47
2019-06-20T10:22:22.402Z,27.84
2019-06-20T10:23:22.392Z,26.99
2019-06-20T10:24:22.419Z,26.28
2019-06-20T10:25:22.370Z,25.64
2019-06-20T10:26:22.357Z,25.56
2019-06-20T10:27:22.350Z,24.97
2019-06-20T10:28:22.333Z,24.75
2019-06-20T10:29:22.328Z,24.56
2019-06-20T10:30:22.331Z,24.49
2019-06-20T10:31:22.303Z,24.59
2019-06-20T10:32:22.291Z,24.69
2019-06-20T10:33:22.276Z,25.01
2019-06-20T10:34:22.267Z,24.95
2019-06-20T10:35:22.270Z,25.28
2019-06-20T10:36:22.245Z,26.08
2019-06-20T10:37:22.230Z,26.25
2019-06-20T10:38:22.227Z,26.39
2019-06-20T10:39:22.208Z,26.28
2019-06-20T10:40:22.212Z,26.20
2019-06-20T10:41:22.182Z,25.79
2019-06-20T10:42:22.174Z,26.20
2019-06-20T10:43:22.159Z,27.41
2019-06-20T10:44:22.155Z,28.01
2019-06-20T10:45:22.156Z,28.81
2019-06-20T10:46:22.127Z,29.77
2019-06-20T10:47:32.397Z,30.68
2019-06-20T10:48:23.109Z,31.40
2019-06-20T10:49:22.097Z,32.14
2019-06-20T10:50:22.107Z,32.64
2019-06-20T10:51:22.080Z,31.79
2019-06-20T10:52:22.062Z,30.75
2019-06-20T10:53:22.054Z,29.57
2019-06-20T10:54:22.038Z,28.59
2019-06-20T10:55:22.045Z,27.39
2019-06-20T10:56:22.023Z,26.77
2019-06-20T10:57:22.008Z,26.31
2019-06-20T10:58:21.994Z,26.09
2019-06-20T10:59:21.992Z,26.22
2019-06-20T11:00:30.727Z,26.11
2019-06-20T11:01:22.968Z,26.35
2019-06-20T11:02:21.960Z,27.43
2019-06-20T11:03:21.942Z,28.40
2019-06-20T11:04:21.939Z,29.10
2019-06-20T11:05:21.929Z,29.06
2019-06-20T11:06:21.947Z,28.80
2019-06-20T11:07:21.905Z,28.82
2019-06-20T11:08:21.886Z,28.82
2019-06-20T11:09:21.877Z,29.31
2019-06-20T11:10:21.861Z,29.74
2019-06-20T11:11:21.911Z,30.45
2019-06-20T11:12:21.840Z,30.93
2019-06-20T11:13:21.846Z,30.47
2019-06-20T11:14:21.821Z,30.83
2019-06-20T11:15:21.809Z,30.84
2019-06-20T11:16:21.821Z,29.90
2019-06-20T11:17:21.785Z,29.81
2019-06-20T11:18:21.778Z,29.52
2019-06-20T11:19:21.767Z,29.43
2019-06-20T11:20:21.755Z,29.59
2019-06-20T11:21:21.774Z,30.52
2019-06-20T11:22:21.780Z,31.36
2019-06-20T11:23:21.723Z,32.32
2019-06-20T11:24:21.919Z,32.20
2019-06-20T11:25:21.700Z,32.71
2019-06-20T11:26:21.715Z,32.80
2019-06-20T11:27:21.717Z,32.47
2019-06-20T11:28:21.667Z,31.67
2019-06-20T11:29:21.660Z,31.02
2019-06-20T11:30:21.655Z,30.64
2019-06-20T11:31:21.658Z,29.78
2019-06-20T11:32:21.627Z,28.97
2019-06-20T11:33:21.615Z,28.90
2019-06-20T11:34:21.604Z,28.47
2019-06-20T11:35:21.596Z,28.36
2019-06-20T11:36:21.582Z,28.23
2019-06-20T11:37:21.590Z,28.01
2019-06-20T11:38:21.562Z,27.94
2019-06-20T11:39:21.552Z,27.89
2019-06-20T11:40:21.542Z,27.82
2019-06-20T11:41:21.548Z,27.61
2019-06-20T11:42:21.523Z,27.26
2019-06-20T11:43:21.522Z,26.87
2019-06-20T11:44:21.497Z,26.72
2019-06-20T11:45:21.507Z,26.69
2019-06-20T11:46:21.494Z,26.64
2019-06-20T11:47:21.465Z,26.47
2019-06-20T11:48:21.456Z,26.36
2019-06-20T11:49:21.439Z,26.31
2019-06-20T11:50:21.436Z,26.35
2019-06-20T11:51:21.441Z,26.37
2019-06-20T11:52:21.404Z,26.57
2019-06-20T11:53:21.394Z,26.89
2019-06-20T11:54:21.385Z,27.20
2019-06-20T11:55:21.372Z,27.51
2019-06-20T11:56:21.358Z,27.67
2019-06-20T11:57:21.372Z,27.36
2019-06-20T11:58:23.477Z,27.47
2019-06-20T11:59:21.325Z,27.46
2019-06-20T12:00:21.318Z,27.26
2019-06-20T12:01:32.509Z,27.13
2019-06-20T12:02:22.324Z,27.14
2019-06-20T12:03:21.279Z,27.21
2019-06-20T12:04:21.271Z,27.29
2019-06-20T12:05:21.259Z,27.19
2019-06-20T12:06:21.246Z,27.14
2019-06-20T12:07:21.250Z,27.14
2019-06-20T12:08:21.222Z,27.04
2019-06-20T12:09:21.213Z,26.83
2019-06-20T12:10:21.201Z,26.58
2019-06-20T12:11:21.188Z,26.47
2019-06-20T12:12:21.208Z,26.42
2019-06-20T12:13:21.165Z,26.25
2019-06-20T12:14:21.154Z,26.24
2019-06-20T12:15:21.141Z,26.02
2019-06-20T12:16:21.130Z,25.87
2019-06-20T12:17:21.144Z,25.68
2019-06-20T12:18:21.112Z,25.54
2019-06-20T12:19:21.096Z,25.54
2019-06-20T12:20:21.085Z,25.46
2019-06-20T12:21:21.082Z,25.50
2019-06-20T12:22:21.083Z,25.39
2019-06-20T12:23:21.051Z,25.35
2019-06-20T12:24:28.174Z,25.16
2019-06-20T12:25:21.025Z,25.24
2019-06-20T12:26:21.023Z,25.28
2019-06-20T12:27:21.028Z,25.30
2019-06-20T12:28:20.994Z,25.30
2019-06-20T12:29:20.985Z,25.37
2019-06-20T12:30:20.969Z,25.49
2019-06-20T12:31:20.961Z,25.44
2019-06-20T12:32:20.966Z,25.52
2019-06-20T12:33:20.939Z,25.52
2019-06-20T12:34:21.012Z,25.43
2019-06-20T12:35:20.945Z,25.39
2019-06-20T12:36:20.908Z,25.47
2019-06-20T12:37:20.911Z,25.25
2019-06-20T12:38:20.881Z,25.10
2019-06-20T12:39:20.869Z,24.98
2019-06-20T12:40:20.858Z,25.16
2019-06-20T12:41:20.845Z,25.20
2019-06-20T12:42:20.850Z,25.20
2019-06-20T12:43:20.824Z,25.10
2019-06-20T12:44:20.823Z,25.10
2019-06-20T12:45:20.805Z,25.16
2019-06-20T12:46:20.790Z,25.25
2019-06-20T12:47:20.813Z,25.17
2019-06-20T12:48:20.766Z,25.16
2019-06-20T12:49:23.826Z,25.15
2019-06-20T12:50:20.744Z,25.07
2019-06-20T12:51:20.745Z,25.13
2019-06-20T12:52:20.717Z,25.06